createdAt,value
2023-03-18T00:02:48.393Z,0.20
2023-03-18T00:05:46.986Z,0.20
2023-03-18T00:08:47.927Z,0.30
2023-03-18T00:11:46.621Z,0.40
2023-03-18T00:14:44.451Z,0.40
2023-03-18T00:17:42.882Z,0.20
2023-03-18T00:20:40.763Z,0.20
2023-03-18T00:23:39.091Z,0.30
2023-03-18T00:26:37.070Z,0.30
2023-03-18T00:29:34.842Z,0.20
2023-03-18T00:32:33.533Z,0.20
2023-03-18T00:35:31.542Z,0.20
2023-03-18T00:38:30.981Z,0.10
2023-03-18T00:41:29.141Z,0.00
2023-03-18T00:44:27.042Z,0.10
2023-03-18T00:47:24.829Z,0.00
2023-03-18T00:50:22.906Z,-0.10
2023-03-18T00:53:21.765Z,-0.30
2023-03-18T00:56:21.417Z,-0.30
2023-03-18T00:59:19.857Z,-0.30
2023-03-18T01:02:17.716Z,-0.40
2023-03-18T01:05:16.053Z,-0.30
2023-03-18T01:08:13.905Z,-0.40
2023-03-18T01:11:12.347Z,-0.40
2023-03-18T01:14:11.317Z,-0.40
2023-03-18T01:17:09.855Z,-0.60
2023-03-18T01:20:08.258Z,-0.70
2023-03-18T01:23:09.278Z,-0.70
2023-03-18T01:26:07.645Z,-0.70
2023-03-18T01:29:06.020Z,-0.90
2023-03-18T01:32:04.248Z,-1.40
2023-03-18T01:35:02.219Z,-1.40
2023-03-18T01:40:59.152Z,-1.20
2023-03-18T01:43:56.975Z,-1.20
2023-03-18T01:46:55.211Z,-1.20
2023-03-18T01:49:53.489Z,-1.20
2023-03-18T01:52:59.940Z,-1.20
2023-03-18T01:55:58.631Z,-1.20
2023-03-18T01:58:58.245Z,-1.10
2023-03-18T02:02:07.431Z,-1.10
2023-03-18T02:05:09.556Z,-1.00
2023-03-18T02:08:07.401Z,-1.10
2023-03-18T02:11:05.353Z,-1.10
2023-03-18T02:14:04.915Z,-0.90
2023-03-18T02:17:06.912Z,-0.90
2023-03-18T02:20:29.141Z,-0.90
2023-03-18T02:23:43.001Z,-0.80
2023-03-18T02:27:05.724Z,-0.70
2023-03-18T02:30:10.880Z,-0.60
2023-03-18T02:33:10.787Z,-0.60
2023-03-18T02:36:18.228Z,-0.50
2023-03-18T02:39:16.953Z,-0.50
2023-03-18T02:42:15.465Z,-0.40
2023-03-18T02:45:27.333Z,-0.50
2023-03-18T02:48:31.230Z,-0.40
2023-03-18T02:51:30.318Z,-0.50
2023-03-18T02:54:30.905Z,-0.50
2023-03-18T02:57:28.888Z,-0.50
2023-03-18T03:00:26.652Z,-0.60
2023-03-18T03:03:25.237Z,-0.40
2023-03-18T03:06:23.252Z,-0.50
2023-03-18T03:09:23.222Z,-0.50
2023-03-18T03:12:21.047Z,-0.30
2023-03-18T03:15:19.911Z,-0.20
2023-03-18T03:18:18.081Z,-0.10
2023-03-18T03:21:16.792Z,-0.10
2023-03-18T03:24:14.548Z,0.00
2023-03-18T03:27:13.205Z,-0.10
2023-03-18T03:30:13.021Z,-0.30
2023-03-18T03:33:11.746Z,-0.20
2023-03-18T03:36:12.955Z,-0.20
2023-03-18T03:39:11.393Z,-0.10
2023-03-18T03:42:09.183Z,-0.10
2023-03-18T03:45:08.148Z,-0.10
2023-03-18T03:48:06.132Z,-0.10
2023-03-18T03:51:04.168Z,-0.10
2023-03-18T03:54:02.351Z,-0.20
2023-03-18T03:57:00.379Z,-0.20
2023-03-18T03:59:58.119Z,-0.30
2023-03-18T04:02:56.919Z,-0.10
2023-03-18T04:05:55.262Z,0.00
2023-03-18T04:08:53.153Z,0.00
2023-03-18T04:11:50.880Z,0.10
2023-03-18T04:14:51.409Z,0.20
2023-03-18T04:17:51.361Z,0.20
2023-03-18T04:20:49.198Z,0.20
2023-03-18T04:23:46.974Z,-0.10
2023-03-18T04:26:45.156Z,-0.20
2023-03-18T04:29:58.416Z,-0.30
2023-03-18T04:32:59.889Z,-0.40
2023-03-18T04:35:58.820Z,-0.50
2023-03-18T04:38:57.589Z,-0.50
2023-03-18T04:41:57.476Z,-0.70
2023-03-18T04:44:55.277Z,-0.60
2023-03-18T04:47:53.375Z,-0.60
2023-03-18T04:50:51.441Z,-0.90
2023-03-18T04:53:49.145Z,-0.70
2023-03-18T04:56:47.420Z,-0.50
2023-03-18T04:59:45.888Z,-0.40
2023-03-18T05:02:44.551Z,-0.40
2023-03-18T05:05:42.390Z,-0.20
2023-03-18T05:08:40.395Z,-0.10
2023-03-18T05:11:38.673Z,-0.30
2023-03-18T05:14:36.608Z,-0.20
2023-03-18T05:17:34.802Z,-0.10
2023-03-18T05:20:32.691Z,-0.10
2023-03-18T05:23:30.406Z,-0.10
2023-03-18T05:26:28.255Z,-0.20
2023-03-18T05:29:26.015Z,-0.20
2023-03-18T05:32:23.846Z,-0.20
2023-03-18T05:35:22.439Z,0.00
2023-03-18T05:38:20.465Z,-0.50
2023-03-18T05:41:18.777Z,-0.50
2023-03-18T05:44:17.541Z,-0.60
2023-03-18T05:47:15.346Z,-0.40
2023-03-18T05:50:14.951Z,-0.40
2023-03-18T05:53:12.869Z,-0.50
2023-03-18T05:56:12.849Z,-0.80
2023-03-18T05:59:10.983Z,-1.30
2023-03-18T06:02:09.006Z,-1.90
2023-03-18T06:05:07.066Z,-2.00
2023-03-18T06:08:05.109Z,-2.10
2023-03-18T06:11:02.957Z,-1.90
2023-03-18T06:14:00.826Z,-1.50
2023-03-18T06:16:59.906Z,-1.50
2023-03-18T06:19:57.933Z,-1.20
2023-03-18T06:22:55.635Z,-1.20
2023-03-18T06:25:53.508Z,-1.90
2023-03-18T06:28:51.459Z,-2.10
2023-03-18T06:31:49.316Z,-1.60
2023-03-18T06:34:47.179Z,-1.50
2023-03-18T06:37:45.029Z,-1.40
2023-03-18T06:40:43.520Z,-1.80
2023-03-18T06:43:41.482Z,-1.80
2023-03-18T06:46:41.399Z,-1.80
2023-03-18T06:49:40.562Z,-1.90
2023-03-18T06:52:41.266Z,-2.20
2023-03-18T06:55:39.872Z,-2.50
2023-03-18T06:58:38.295Z,-2.20
2023-03-18T07:01:37.734Z,-2.00
2023-03-18T07:04:35.981Z,-1.70
2023-03-18T07:07:34.026Z,-1.70
2023-03-18T07:10:32.442Z,-1.60
2023-03-18T07:13:30.481Z,-1.40
2023-03-18T07:16:28.526Z,-1.40
2023-03-18T07:19:26.507Z,-1.40
2023-03-18T07:22:25.176Z,-1.70
2023-03-18T07:25:23.315Z,-1.60
2023-03-18T07:28:21.534Z,-1.90
2023-03-18T07:31:19.697Z,-1.90
2023-03-18T07:34:19.268Z,-1.80
2023-03-18T07:37:17.650Z,-2.10
2023-03-18T07:40:15.806Z,-1.70
2023-03-18T07:43:13.637Z,-1.40
2023-03-18T07:46:11.548Z,-1.30
2023-03-18T07:49:09.454Z,-1.30
2023-03-18T07:52:07.239Z,-1.30
2023-03-18T07:55:05.820Z,-1.20
2023-03-18T07:58:05.377Z,-2.30
2023-03-18T08:01:03.497Z,-2.10
2023-03-18T08:04:01.847Z,-2.20
2023-03-18T08:06:59.822Z,-1.80
2023-03-18T08:09:57.530Z,-1.60
2023-03-18T08:12:55.344Z,-1.30
2023-03-18T08:15:53.366Z,-1.10
2023-03-18T08:18:51.293Z,-1.30
2023-03-18T08:21:49.579Z,-1.50
2023-03-18T08:24:47.421Z,-1.60
2023-03-18T08:27:45.273Z,-2.20
2023-03-18T08:30:43.166Z,-2.20
2023-03-18T08:33:41.996Z,-1.90
2023-03-18T08:36:42.950Z,-1.70
2023-03-18T08:39:41.875Z,-1.40
2023-03-18T08:42:39.862Z,-1.40
2023-03-18T08:45:38.394Z,-1.20
2023-03-18T08:48:36.737Z,-1.10
2023-03-18T08:51:35.119Z,-1.70
2023-03-18T08:54:33.146Z,-1.90
2023-03-18T08:57:32.009Z,-1.90
2023-03-18T09:00:38.509Z,-1.90
2023-03-18T09:03:41.231Z,-1.90
2023-03-18T09:06:41.814Z,-2.40
2023-03-18T09:09:44.082Z,-2.30
2023-03-18T09:12:43.050Z,-2.20
2023-03-18T09:15:42.544Z,-1.80
2023-03-18T09:18:43.988Z,-1.70
2023-03-18T09:21:42.464Z,-1.80
2023-03-18T09:24:41.244Z,-1.60
2023-03-18T09:27:39.077Z,-1.50
2023-03-18T09:30:38.676Z,-1.40
2023-03-18T09:33:37.601Z,-1.70
2023-03-18T09:36:35.543Z,-1.70
2023-03-18T09:39:36.675Z,-1.40
2023-03-18T09:42:52.340Z,-1.40
2023-03-18T09:46:20.691Z,-1.60
2023-03-18T09:49:46.337Z,-1.50
2023-03-18T09:52:50.931Z,-1.60
2023-03-18T09:55:54.634Z,-1.60
2023-03-18T09:59:04.441Z,-1.80
2023-03-18T10:02:09.026Z,-1.90
2023-03-18T10:05:18.826Z,-2.00
2023-03-18T10:08:47.068Z,-2.00
2023-03-18T10:11:49.042Z,-2.20
2023-03-18T10:14:53.151Z,-2.00
2023-03-18T10:18:00.343Z,-1.90
2023-03-18T10:21:20.452Z,-1.90
2023-03-18T10:24:41.049Z,-1.80
2023-03-18T10:28:05.715Z,-1.80
2023-03-18T10:31:34.666Z,-2.00
2023-03-18T10:34:53.231Z,-1.90
2023-03-18T10:38:01.077Z,-1.90
2023-03-18T10:40:59.912Z,-1.80
2023-03-18T10:43:58.353Z,-1.80
2023-03-18T10:47:02.237Z,-1.70
2023-03-18T10:50:13.973Z,-1.80
2023-03-18T10:53:28.355Z,-1.70
2023-03-18T10:56:26.570Z,-1.80
2023-03-18T10:59:26.517Z,-1.80
2023-03-18T11:02:33.072Z,-1.80
2023-03-18T11:05:35.711Z,-1.90
2023-03-18T11:08:37.910Z,-2.00
2023-03-18T11:11:39.836Z,-2.00
2023-03-18T11:14:38.055Z,-2.00
2023-03-18T11:17:37.936Z,-2.00
2023-03-18T11:20:47.965Z,-1.80
2023-03-18T11:24:11.076Z,-1.70
2023-03-18T11:27:29.596Z,-1.60
2023-03-18T11:30:34.904Z,-1.40
2023-03-18T11:33:37.800Z,-1.40
2023-03-18T11:36:35.683Z,-1.30
2023-03-18T11:39:38.043Z,-1.40
2023-03-18T11:42:38.863Z,-1.50
2023-03-18T11:45:47.914Z,-1.40
2023-03-18T11:48:45.997Z,-1.50
2023-03-18T11:52:14.506Z,-1.50
2023-03-18T11:55:34.542Z,-1.50
2023-03-18T11:58:54.990Z,-1.60
2023-03-18T12:02:08.479Z,-1.60
2023-03-18T12:05:37.010Z,-1.50
2023-03-18T12:08:50.616Z,-1.40
2023-03-18T12:12:04.406Z,-1.30
2023-03-18T12:15:23.519Z,-1.40
2023-03-18T12:18:34.930Z,-1.40
2023-03-18T12:21:59.668Z,-1.50
2023-03-18T12:25:14.768Z,-1.50
2023-03-18T12:28:33.553Z,-1.40
2023-03-18T12:31:56.498Z,-1.30
2023-03-18T12:35:22.458Z,-1.20
2023-03-18T12:38:53.829Z,-1.20
2023-03-18T12:42:04.234Z,-1.10
2023-03-18T12:45:04.311Z,-1.10
2023-03-18T12:48:10.064Z,-1.10
2023-03-18T12:51:15.211Z,-1.00
2023-03-18T12:54:21.197Z,-1.00
2023-03-18T12:57:52.752Z,-1.00
2023-03-18T13:01:08.501Z,-0.90
2023-03-18T13:04:14.068Z,-0.90
2023-03-18T13:07:19.233Z,-0.90
2023-03-18T13:10:23.979Z,-0.90
2023-03-18T13:13:23.436Z,-0.80
2023-03-18T13:16:23.846Z,-0.80
2023-03-18T13:19:21.711Z,-0.80
2023-03-18T13:22:50.077Z,-0.90
2023-03-18T13:26:14.789Z,-0.80
2023-03-18T13:29:39.483Z,-0.90
2023-03-18T13:32:56.548Z,-0.90
2023-03-18T13:36:24.887Z,-0.90
2023-03-18T13:39:39.052Z,-0.90
2023-03-18T13:42:41.038Z,-0.80
2023-03-18T13:45:45.001Z,-0.70
2023-03-18T13:48:43.018Z,-0.60
2023-03-18T13:51:51.082Z,-0.40
2023-03-18T13:54:49.167Z,-0.40
2023-03-18T13:57:54.470Z,-0.40
2023-03-18T14:01:16.613Z,-0.40
2023-03-18T14:04:31.705Z,-0.40
2023-03-18T14:07:30.082Z,-0.30
2023-03-18T14:10:28.228Z,-0.20
2023-03-18T14:13:28.889Z,-0.10
2023-03-18T14:16:52.454Z,-0.10
2023-03-18T14:19:55.291Z,0.00
2023-03-18T14:22:55.398Z,0.00
2023-03-18T14:26:18.543Z,0.10
2023-03-18T14:29:25.104Z,0.10
2023-03-18T14:32:40.432Z,0.20
2023-03-18T14:36:02.498Z,0.20
2023-03-18T14:39:04.178Z,0.20
2023-03-18T14:42:06.702Z,0.30
2023-03-18T14:45:29.639Z,0.30
2023-03-18T14:48:32.005Z,0.40
2023-03-18T14:51:32.842Z,0.40
2023-03-18T14:54:36.823Z,0.40
2023-03-18T14:57:34.585Z,0.40
2023-03-18T15:00:36.438Z,0.10
2023-03-18T15:03:34.978Z,0.10
2023-03-18T15:06:33.335Z,0.00
2023-03-18T15:09:35.174Z,-0.10
2023-03-18T15:12:34.016Z,-0.20
2023-03-18T15:15:32.662Z,-0.20
2023-03-18T15:18:35.063Z,-0.10
2023-03-18T15:21:35.807Z,0.00
2023-03-18T15:24:34.279Z,0.00
2023-03-18T15:27:34.962Z,0.10
2023-03-18T15:30:34.902Z,0.10
2023-03-18T15:33:38.556Z,0.10
2023-03-18T15:36:46.102Z,0.00
2023-03-18T15:39:43.832Z,0.00
2023-03-18T15:42:44.580Z,0.10
2023-03-18T15:45:47.444Z,0.00
2023-03-18T15:48:55.111Z,-0.10
2023-03-18T15:51:59.854Z,-0.20
2023-03-18T15:55:00.909Z,-0.20
2023-03-18T15:57:59.562Z,-0.20
2023-03-18T16:00:58.097Z,-0.30
2023-03-18T16:03:55.876Z,-0.30
2023-03-18T16:06:54.388Z,-0.30
2023-03-18T16:09:52.216Z,-0.30
2023-03-18T16:12:54.115Z,-0.40
2023-03-18T16:15:53.151Z,-0.40
2023-03-18T16:18:51.186Z,-0.50
2023-03-18T16:21:49.311Z,-0.50
2023-03-18T16:24:47.272Z,-0.60
2023-03-18T16:27:48.946Z,-0.70
2023-03-18T16:30:48.212Z,-0.80
2023-03-18T16:33:49.034Z,-0.80
2023-03-18T16:36:48.054Z,-0.80
2023-03-18T16:39:45.784Z,-0.90
2023-03-18T16:42:44.624Z,-0.90
2023-03-18T16:45:42.743Z,-1.00
2023-03-18T16:48:41.078Z,-1.00
2023-03-18T16:51:38.772Z,-1.00
2023-03-18T16:54:36.644Z,-1.10
2023-03-18T16:57:34.372Z,-1.20
2023-03-18T17:00:33.783Z,-1.20
2023-03-18T17:03:32.203Z,-1.20
2023-03-18T17:06:33.094Z,-1.20
2023-03-18T17:09:32.380Z,-1.30
2023-03-18T17:12:30.308Z,-1.30
2023-03-18T17:15:32.443Z,-1.30
2023-03-18T17:18:30.845Z,-1.30
2023-03-18T17:21:30.201Z,-1.40
2023-03-18T17:24:28.111Z,-1.40
2023-03-18T17:27:30.655Z,-1.40
2023-03-18T17:30:35.456Z,-1.40
2023-03-18T17:33:35.119Z,-1.50
2023-03-18T17:36:33.474Z,-1.50
2023-03-18T17:39:31.599Z,-1.70
2023-03-18T17:42:32.922Z,-1.70
2023-03-18T17:45:33.529Z,-1.70
2023-03-18T17:48:38.864Z,-1.80
2023-03-18T17:51:37.033Z,-1.90
2023-03-18T17:54:35.050Z,-1.90
2023-03-18T17:57:33.158Z,-1.90
2023-03-18T18:00:33.430Z,-1.90
2023-03-18T18:03:33.318Z,-1.90
2023-03-18T18:06:31.574Z,-1.90
2023-03-18T18:09:31.689Z,-1.90
2023-03-18T18:12:31.933Z,-2.00
2023-03-18T18:15:29.757Z,-1.90
2023-03-18T18:18:29.725Z,-1.90
2023-03-18T18:21:29.792Z,-2.00
2023-03-18T18:24:30.078Z,-2.00
2023-03-18T18:27:28.149Z,-2.00
2023-03-18T18:30:26.851Z,-2.00
2023-03-18T18:33:24.800Z,-2.10
2023-03-18T18:36:23.300Z,-2.10
2023-03-18T18:39:21.425Z,-2.20
2023-03-18T18:42:19.362Z,-2.20
2023-03-18T18:45:20.277Z,-2.30
2023-03-18T18:48:21.750Z,-2.20
2023-03-18T18:51:22.194Z,-2.20
2023-03-18T18:54:20.330Z,-2.30
2023-03-18T18:57:28.802Z,-2.30
2023-03-18T19:00:26.794Z,-2.30
2023-03-18T19:03:31.734Z,-2.40
2023-03-18T19:06:32.221Z,-2.40
2023-03-18T19:09:30.017Z,-2.40
2023-03-18T19:12:28.306Z,-2.40
2023-03-18T19:15:27.515Z,-2.40
2023-03-18T19:18:27.601Z,-2.40
2023-03-18T19:21:25.653Z,-2.50
2023-03-18T19:24:31.120Z,-2.60
2023-03-18T19:27:31.483Z,-2.60
2023-03-18T19:30:29.510Z,-2.60
2023-03-18T19:33:30.297Z,-2.70
2023-03-18T19:36:35.807Z,-2.80
2023-03-18T19:39:33.633Z,-2.90
2023-03-18T19:42:31.691Z,-2.80
2023-03-18T19:45:29.828Z,-2.90
2023-03-18T19:48:29.953Z,-2.90
2023-03-18T19:51:27.768Z,-2.80
2023-03-18T19:54:32.787Z,-2.80
2023-03-18T19:57:32.160Z,-2.90
2023-03-18T20:00:31.145Z,-2.90
2023-03-18T20:03:29.379Z,-2.90
2023-03-18T20:06:29.719Z,-3.00
2023-03-18T20:09:28.957Z,-3.00
2023-03-18T20:12:37.722Z,-3.10
2023-03-18T20:15:35.823Z,-3.10
2023-03-18T20:18:33.893Z,-3.10
2023-03-18T20:21:32.769Z,-3.00
2023-03-18T20:24:32.152Z,-3.00
2023-03-18T20:27:30.770Z,-3.10
2023-03-18T20:30:32.839Z,-3.10
2023-03-18T20:33:32.848Z,-3.10
2023-03-18T20:36:30.894Z,-3.00
2023-03-18T20:39:28.636Z,-3.00
2023-03-18T20:42:26.707Z,-3.00
2023-03-18T20:45:26.724Z,-3.10
2023-03-18T20:48:25.195Z,-3.10
2023-03-18T20:51:28.673Z,-3.10
2023-03-18T20:54:30.479Z,-3.20
2023-03-18T20:57:28.668Z,-3.20
2023-03-18T21:00:30.190Z,-3.20
2023-03-18T21:03:30.100Z,-3.20
2023-03-18T21:06:27.933Z,-3.20
2023-03-18T21:09:25.713Z,-3.10
2023-03-18T21:12:23.971Z,-3.10
2023-03-18T21:15:24.679Z,-3.10
2023-03-18T21:18:23.180Z,-3.10
2023-03-18T21:21:26.357Z,-3.20
2023-03-18T21:24:27.410Z,-3.10
2023-03-18T21:27:27.927Z,-3.10
2023-03-18T21:30:25.795Z,-3.10
2023-03-18T21:33:34.047Z,-3.00
2023-03-18T21:36:31.883Z,-3.00
2023-03-18T21:39:29.981Z,-3.00
2023-03-18T21:42:29.710Z,-3.00
2023-03-18T21:45:27.425Z,-3.10
2023-03-18T21:48:25.331Z,-3.00
2023-03-18T21:51:39.504Z,-3.10
2023-03-18T21:54:37.873Z,-3.10
2023-03-18T21:57:37.622Z,-3.10
2023-03-18T22:00:35.624Z,-3.10
2023-03-18T22:03:34.769Z,-3.10
2023-03-18T22:06:32.697Z,-3.10
2023-03-18T22:09:30.397Z,-3.10
2023-03-18T22:12:30.948Z,-3.10
2023-03-18T22:15:36.545Z,-3.10
2023-03-18T22:18:34.482Z,-3.10
2023-03-18T22:21:32.606Z,-3.10
2023-03-18T22:24:30.420Z,-3.10
2023-03-18T22:27:30.800Z,-3.10
2023-03-18T22:30:31.564Z,-3.10
2023-03-18T22:33:32.468Z,-3.10
2023-03-18T22:36:30.361Z,-3.10
2023-03-18T22:39:28.585Z,-3.10
2023-03-18T22:42:28.315Z,-3.10
2023-03-18T22:45:29.449Z,-3.10
2023-03-18T22:48:27.430Z,-3.10
2023-03-18T22:51:28.915Z,-3.10
2023-03-18T22:54:27.806Z,-3.00
2023-03-18T22:57:27.503Z,-2.90
2023-03-18T23:00:41.774Z,-2.90
2023-03-18T23:03:40.890Z,-2.90
2023-03-18T23:06:38.853Z,-3.00
2023-03-18T23:09:47.131Z,-3.00
2023-03-18T23:12:52.365Z,-3.00
2023-03-18T23:15:50.120Z,-2.90
2023-03-18T23:18:48.449Z,-2.90
2023-03-18T23:21:46.408Z,-3.00
2023-03-18T23:24:44.319Z,-3.10
2023-03-18T23:27:42.157Z,-3.10
2023-03-18T23:30:42.046Z,-3.00
2023-03-18T23:33:39.857Z,-3.00
2023-03-18T23:36:38.564Z,-3.10
2023-03-18T23:39:40.165Z,-3.10
2023-03-18T23:42:38.586Z,-3.10
2023-03-18T23:45:38.629Z,-3.00
2023-03-18T23:48:36.893Z,-3.00
2023-03-18T23:51:34.667Z,-3.00
2023-03-18T23:54:34.627Z,-2.90
2023-03-18T23:57:32.498Z,-2.90
